sensor_id;sensor_type;location;lat;lon;timestamp;pressure;altitude;pressure_sealevel;temperature;humidity
41202;BME280;26936;50.524;8.684;2023-02-28T00:00:51;100550.03;;;0.43;90.83
41202;BME280;26936;50.524;8.684;2023-02-28T00:03:17;100547.22;;;0.39;90.77
41202;BME280;26936;50.524;8.684;2023-02-28T00:05:42;100545.94;;;0.37;91.11
41202;BME280;26936;50.524;8.684;2023-02-28T00:08:08;100541.84;;;0.31;90.88
41202;BME280;26936;50.524;8.684;2023-02-28T00:10:34;100543.06;;;0.33;91.19
41202;BME280;26936;50.524;8.684;2023-02-28T00:13:02;100544.25;;;0.32;91.24
41202;BME280;26936;50.524;8.684;2023-02-28T00:15:28;100535.56;;;0.34;91.16
41202;BME280;26936;50.524;8.684;2023-02-28T00:17:53;100542.00;;;0.38;91.29
41202;BME280;26936;50.524;8.684;2023-02-28T00:20:19;100541.94;;;0.34;91.46
41202;BME280;26936;50.524;8.684;2023-02-28T00:22:47;100526.72;;;0.28;90.97
41202;BME280;26936;50.524;8.684;2023-02-28T00:25:20;100528.25;;;0.26;91.37
41202;BME280;26936;50.524;8.684;2023-02-28T00:27:46;100533.31;;;0.24;91.41
41202;BME280;26936;50.524;8.684;2023-02-28T00:30:14;100532.88;;;0.22;91.29
41202;BME280;26936;50.524;8.684;2023-02-28T00:32:40;100538.59;;;0.13;91.76
41202;BME280;26936;50.524;8.684;2023-02-28T00:35:06;100531.94;;;0.02;91.49
41202;BME280;26936;50.524;8.684;2023-02-28T00:37:31;100529.00;;;-0.05;91.87
41202;BME280;26936;50.524;8.684;2023-02-28T00:39:57;100535.59;;;-0.10;92.05
41202;BME280;26936;50.524;8.684;2023-02-28T00:42:23;100538.25;;;-0.13;91.84
41202;BME280;26936;50.524;8.684;2023-02-28T00:44:48;100531.81;;;-0.17;92.00
41202;BME280;26936;50.524;8.684;2023-02-28T00:47:14;100524.50;;;-0.25;91.73
41202;BME280;26936;50.524;8.684;2023-02-28T00:49:39;100530.41;;;-0.39;92.34
41202;BME280;26936;50.524;8.684;2023-02-28T00:52:04;100536.78;;;-0.38;92.04
41202;BME280;26936;50.524;8.684;2023-02-28T00:54:30;100528.25;;;-0.45;92.54
41202;BME280;26936;50.524;8.684;2023-02-28T00:56:55;100530.91;;;-0.49;92.60
41202;BME280;26936;50.524;8.684;2023-02-28T00:59:20;100533.56;;;-0.52;92.12
41202;BME280;26936;50.524;8.684;2023-02-28T01:01:46;100534.19;;;-0.59;92.70
41202;BME280;26936;50.524;8.684;2023-02-28T01:04:13;100528.47;;;-0.66;92.46
41202;BME280;26936;50.524;8.684;2023-02-28T01:06:38;100534.59;;;-0.72;93.26
41202;BME280;26936;50.524;8.684;2023-02-28T01:09:05;100538.84;;;-0.75;94.12
41202;BME280;26936;50.524;8.684;2023-02-28T01:11:31;100539.88;;;-0.79;94.28
41202;BME280;26936;50.524;8.684;2023-02-28T01:13:56;100535.19;;;-0.91;95.00
41202;BME280;26936;50.524;8.684;2023-02-28T01:16:21;100533.38;;;-0.99;96.65
41202;BME280;26936;50.524;8.684;2023-02-28T01:18:47;100529.34;;;-1.01;96.68
41202;BME280;26936;50.524;8.684;2023-02-28T01:21:14;100534.06;;;-1.02;97.17
41202;BME280;26936;50.524;8.684;2023-02-28T01:23:41;100536.47;;;-1.00;96.43
41202;BME280;26936;50.524;8.684;2023-02-28T01:26:08;100531.28;;;-1.02;97.01
41202;BME280;26936;50.524;8.684;2023-02-28T01:28:34;100526.66;;;-0.98;96.31
41202;BME280;26936;50.524;8.684;2023-02-28T01:30:59;100533.59;;;-1.04;96.96
41202;BME280;26936;50.524;8.684;2023-02-28T01:33:24;100532.69;;;-1.08;96.31
41202;BME280;26936;50.524;8.684;2023-02-28T01:35:57;100532.22;;;-1.10;97.29
41202;BME280;26936;50.524;8.684;2023-02-28T01:38:23;100538.81;;;-1.14;98.14
41202;BME280;26936;50.524;8.684;2023-02-28T01:40:49;100527.75;;;-1.14;98.35
41202;BME280;26936;50.524;8.684;2023-02-28T01:43:26;100524.63;;;-1.13;97.73
41202;BME280;26936;50.524;8.684;2023-02-28T01:45:53;100528.41;;;-1.17;98.77
41202;BME280;26936;50.524;8.684;2023-02-28T01:48:22;100535.94;;;-1.18;98.71
41202;BME280;26936;50.524;8.684;2023-02-28T01:50:49;100530.06;;;-1.16;99.29
41202;BME280;26936;50.524;8.684;2023-02-28T01:53:19;100530.06;;;-1.16;99.02
41202;BME280;26936;50.524;8.684;2023-02-28T01:55:48;100530.53;;;-1.14;99.26
41202;BME280;26936;50.524;8.684;2023-02-28T01:58:16;100529.34;;;-1.13;99.33
41202;BME280;26936;50.524;8.684;2023-02-28T02:00:41;100535.22;;;-1.15;99.39
41202;BME280;26936;50.524;8.684;2023-02-28T02:03:13;100521.53;;;-1.11;98.98
41202;BME280;26936;50.524;8.684;2023-02-28T02:05:40;100519.47;;;-1.14;99.00
41202;BME280;26936;50.524;8.684;2023-02-28T02:08:11;100520.59;;;-1.15;98.92
41202;BME280;26936;50.524;8.684;2023-02-28T02:10:57;100523.25;;;-1.19;99.47
41202;BME280;26936;50.524;8.684;2023-02-28T02:13:56;100514.47;;;-1.09;98.97
41202;BME280;26936;50.524;8.684;2023-02-28T02:32:47;100504.13;;;-1.12;98.14
41202;BME280;26936;50.524;8.684;2023-02-28T02:38:07;100503.88;;;-1.19;97.36
41202;BME280;26936;50.524;8.684;2023-02-28T02:40:43;100493.88;;;-1.23;97.89
41202;BME280;26936;50.524;8.684;2023-02-28T02:43:16;100500.47;;;-1.28;97.64
41202;BME280;26936;50.524;8.684;2023-02-28T02:45:54;100495.41;;;-1.38;97.69
41202;BME280;26936;50.524;8.684;2023-02-28T02:48:25;100495.75;;;-1.40;97.72
41202;BME280;26936;50.524;8.684;2023-02-28T02:50:56;100499.22;;;-1.43;97.65
41202;BME280;26936;50.524;8.684;2023-02-28T02:53:28;100502.44;;;-1.41;97.09
41202;BME280;26936;50.524;8.684;2023-02-28T02:55:55;100497.03;;;-1.49;97.35
41202;BME280;26936;50.524;8.684;2023-02-28T02:58:26;100497.03;;;-1.49;96.90
41202;BME280;26936;50.524;8.684;2023-02-28T03:00:57;100501.97;;;-1.55;97.16
41202;BME280;26936;50.524;8.684;2023-02-28T03:03:24;100505.75;;;-1.59;96.92
41202;BME280;26936;50.524;8.684;2023-02-28T03:05:58;100500.00;;;-1.66;96.60
41202;BME280;26936;50.524;8.684;2023-02-28T03:08:24;100502.41;;;-1.65;97.25
41202;BME280;26936;50.524;8.684;2023-02-28T03:10:52;100501.16;;;-1.67;97.09
41202;BME280;26936;50.524;8.684;2023-02-28T03:30:10;100507.13;;;-1.77;97.47
41202;BME280;26936;50.524;8.684;2023-02-28T03:33:10;100497.94;;;-1.81;97.35
41202;BME280;26936;50.524;8.684;2023-02-28T03:35:41;100500.56;;;-1.85;97.73
41202;BME280;26936;50.524;8.684;2023-02-28T03:38:16;100505.28;;;-1.85;98.09
41202;BME280;26936;50.524;8.684;2023-02-28T03:40:47;100504.94;;;-1.84;97.25
41202;BME280;26936;50.524;8.684;2023-02-28T03:43:19;100495.06;;;-1.85;97.46
41202;BME280;26936;50.524;8.684;2023-02-28T03:45:48;100493.78;;;-1.75;97.59
41202;BME280;26936;50.524;8.684;2023-02-28T03:48:20;100496.31;;;-1.82;97.73
41202;BME280;26936;50.524;8.684;2023-02-28T03:50:53;100493.31;;;-1.77;97.71
41202;BME280;26936;50.524;8.684;2023-02-28T03:53:28;100497.25;;;-1.78;97.95
41202;BME280;26936;50.524;8.684;2023-02-28T03:55:59;100492.97;;;-1.76;97.76
41202;BME280;26936;50.524;8.684;2023-02-28T03:58:37;100494.13;;;-1.77;97.76
41202;BME280;26936;50.524;8.684;2023-02-28T04:01:12;100488.63;;;-1.77;97.61
41202;BME280;26936;50.524;8.684;2023-02-28T04:03:39;100502.56;;;-1.73;97.09
41202;BME280;26936;50.524;8.684;2023-02-28T04:06:07;100500.00;;;-1.78;97.24
41202;BME280;26936;50.524;8.684;2023-02-28T04:08:34;100498.28;;;-1.59;96.04
41202;BME280;26936;50.524;8.684;2023-02-28T04:11:04;100498.41;;;-1.67;97.09
41202;BME280;26936;50.524;8.684;2023-02-28T04:13:31;100495.53;;;-1.71;97.15
41202;BME280;26936;50.524;8.684;2023-02-28T04:15:56;100486.31;;;-1.75;97.13
41202;BME280;26936;50.524;8.684;2023-02-28T04:18:21;100494.34;;;-1.70;97.67
41202;BME280;26936;50.524;8.684;2023-02-28T04:20:47;100490.81;;;-1.70;97.03
41202;BME280;26936;50.524;8.684;2023-02-28T04:23:12;100492.75;;;-1.71;97.74
41202;BME280;26936;50.524;8.684;2023-02-28T04:25:37;100493.31;;;-1.77;97.29
41202;BME280;26936;50.524;8.684;2023-02-28T04:28:05;100498.84;;;-1.77;97.52
41202;BME280;26936;50.524;8.684;2023-02-28T04:30:30;100495.97;;;-1.81;97.74
41202;BME280;26936;50.524;8.684;2023-02-28T04:32:57;100497.47;;;-1.83;98.28
41202;BME280;26936;50.524;8.684;2023-02-28T04:35:23;100491.38;;;-1.77;97.96
41202;BME280;26936;50.524;8.684;2023-02-28T04:37:48;100495.28;;;-1.78;97.52
41202;BME280;26936;50.524;8.684;2023-02-28T04:40:13;100498.72;;;-1.81;97.36
41202;BME280;26936;50.524;8.684;2023-02-28T04:42:39;100500.91;;;-1.74;97.45
41202;BME280;26936;50.524;8.684;2023-02-28T04:45:04;100502.31;;;-1.80;97.84
41202;BME280;26936;50.524;8.684;2023-02-28T04:47:30;100498.94;;;-1.86;98.28
41202;BME280;26936;50.524;8.684;2023-02-28T04:49:55;100501.00;;;-1.83;98.30
41202;BME280;26936;50.524;8.684;2023-02-28T04:52:21;100503.69;;;-1.86;98.53
41202;BME280;26936;50.524;8.684;2023-02-28T04:54:46;100507.56;;;-1.87;97.83
41202;BME280;26936;50.524;8.684;2023-02-28T04:57:11;100498.50;;;-1.88;98.78
41202;BME280;26936;50.524;8.684;2023-02-28T04:59:37;100493.78;;;-1.87;98.64
41202;BME280;26936;50.524;8.684;2023-02-28T05:02:02;100509.44;;;-1.91;98.47
41202;BME280;26936;50.524;8.684;2023-02-28T05:04:32;100514.03;;;-1.83;97.83
41202;BME280;26936;50.524;8.684;2023-02-28T05:06:59;100510.00;;;-1.86;97.97
41202;BME280;26936;50.524;8.684;2023-02-28T05:09:25;100511.97;;;-1.86;97.44
41202;BME280;26936;50.524;8.684;2023-02-28T05:11:50;100520.25;;;-1.86;97.29
41202;BME280;26936;50.524;8.684;2023-02-28T05:14:15;100517.50;;;-1.86;96.88
41202;BME280;26936;50.524;8.684;2023-02-28T05:16:41;100525.09;;;-1.83;97.03
41202;BME280;26936;50.524;8.684;2023-02-28T05:19:06;100514.25;;;-1.76;96.21
41202;BME280;26936;50.524;8.684;2023-02-28T05:24:01;100517.84;;;-1.76;95.95
41202;BME280;26936;50.524;8.684;2023-02-28T05:26:27;100524.28;;;-1.84;96.03
41202;BME280;26936;50.524;8.684;2023-02-28T05:28:53;100523.69;;;-1.77;95.94
41202;BME280;26936;50.524;8.684;2023-02-28T05:31:18;100523.56;;;-1.81;96.01
41202;BME280;26936;50.524;8.684;2023-02-28T05:33:44;100520.72;;;-1.72;95.71
41202;BME280;26936;50.524;8.684;2023-02-28T05:36:09;100517.25;;;-1.69;96.09
41202;BME280;26936;50.524;8.684;2023-02-28T05:38:35;100524.50;;;-1.65;95.47
41202;BME280;26936;50.524;8.684;2023-02-28T05:41:05;100526.16;;;-1.64;96.10
41202;BME280;26936;50.524;8.684;2023-02-28T05:43:30;100534.66;;;-1.57;95.70
41202;BME280;26936;50.524;8.684;2023-02-28T05:45:55;100531.09;;;-1.45;95.11
41202;BME280;26936;50.524;8.684;2023-02-28T05:48:21;100538.72;;;-1.42;94.79
41202;BME280;26936;50.524;8.684;2023-02-28T05:50:46;100535.69;;;-1.37;95.31
41202;BME280;26936;50.524;8.684;2023-02-28T05:53:11;100545.03;;;-1.29;94.14
41202;BME280;26936;50.524;8.684;2023-02-28T05:55:37;100542.38;;;-1.26;94.57
41202;BME280;26936;50.524;8.684;2023-02-28T05:58:03;100548.47;;;-1.20;94.46
41202;BME280;26936;50.524;8.684;2023-02-28T06:00:28;100547.09;;;-1.14;93.21
41202;BME280;26936;50.524;8.684;2023-02-28T06:02:53;100547.09;;;-1.14;93.97
41202;BME280;26936;50.524;8.684;2023-02-28T06:05:21;100549.28;;;-1.08;93.06
41202;BME280;26936;50.524;8.684;2023-02-28T06:07:47;100554.59;;;-1.03;93.02
41202;BME280;26936;50.524;8.684;2023-02-28T06:10:12;100560.91;;;-1.02;92.80
41202;BME280;26936;50.524;8.684;2023-02-28T06:12:39;100555.38;;;-1.02;93.32
41202;BME280;26936;50.524;8.684;2023-02-28T06:15:04;100554.22;;;-1.01;92.68
41202;BME280;26936;50.524;8.684;2023-02-28T06:17:30;100565.59;;;-0.91;92.14
41202;BME280;26936;50.524;8.684;2023-02-28T06:19:55;100561.13;;;-0.83;94.65
41202;BME280;26936;50.524;8.684;2023-02-28T06:22:20;100566.38;;;-0.78;93.40
41202;BME280;26936;50.524;8.684;2023-02-28T06:24:46;100567.19;;;-0.78;93.35
41202;BME280;26936;50.524;8.684;2023-02-28T06:27:11;100567.44;;;-0.71;93.55
41202;BME280;26936;50.524;8.684;2023-02-28T06:29:36;100566.38;;;-0.66;92.54
41202;BME280;26936;50.524;8.684;2023-02-28T06:32:05;100555.88;;;-0.61;92.04
41202;BME280;26936;50.524;8.684;2023-02-28T06:34:30;100555.16;;;-0.58;92.40
41202;BME280;26936;50.524;8.684;2023-02-28T06:36:55;100562.41;;;-0.53;91.95
41202;BME280;26936;50.524;8.684;2023-02-28T06:39:21;100561.72;;;-0.50;93.79
41202;BME280;26936;50.524;8.684;2023-02-28T06:41:46;100565.25;;;-0.38;91.81
41202;BME280;26936;50.524;8.684;2023-02-28T06:44:16;100560.41;;;-0.41;92.26
41202;BME280;26936;50.524;8.684;2023-02-28T06:46:43;100566.03;;;-0.37;92.14
41202;BME280;26936;50.524;8.684;2023-02-28T06:49:09;100564.91;;;-0.36;92.50
41202;BME280;26936;50.524;8.684;2023-02-28T06:51:37;100566.97;;;-0.33;91.81
41202;BME280;26936;50.524;8.684;2023-02-28T06:54:03;100564.66;;;-0.31;91.20
41202;BME280;26936;50.524;8.684;2023-02-28T06:56:28;100567.88;;;-0.29;91.14
41202;BME280;26936;50.524;8.684;2023-02-28T06:58:54;100579.78;;;-0.13;90.11
41202;BME280;26936;50.524;8.684;2023-02-28T07:01:19;100571.34;;;-0.05;88.84
41202;BME280;26936;50.524;8.684;2023-02-28T07:03:46;100579.63;;;-0.05;88.87
41202;BME280;26936;50.524;8.684;2023-02-28T07:06:11;100580.66;;;0.03;88.76
41202;BME280;26936;50.524;8.684;2023-02-28T07:08:37;100574.16;;;0.11;88.57
41202;BME280;26936;50.524;8.684;2023-02-28T07:11:03;100578.28;;;0.17;87.34
41202;BME280;26936;50.524;8.684;2023-02-28T07:13:29;100579.22;;;0.52;86.42
41202;BME280;26936;50.524;8.684;2023-02-28T07:16:00;100568.63;;;0.89;84.46
41202;BME280;26936;50.524;8.684;2023-02-28T07:18:25;100582.31;;;0.97;82.74
41202;BME280;26936;50.524;8.684;2023-02-28T07:20:51;100577.13;;;0.96;81.57
41202;BME280;26936;50.524;8.684;2023-02-28T07:23:17;100579.78;;;1.08;80.30
41202;BME280;26936;50.524;8.684;2023-02-28T07:25:42;100587.31;;;1.07;80.16
41202;BME280;26936;50.524;8.684;2023-02-28T07:28:07;100581.13;;;1.14;79.64
41202;BME280;26936;50.524;8.684;2023-02-28T07:30:33;100576.84;;;1.35;78.75
41202;BME280;26936;50.524;8.684;2023-02-28T07:32:58;100579.34;;;1.40;76.94
41202;BME280;26936;50.524;8.684;2023-02-28T07:35:24;100575.06;;;1.43;75.38
41202;BME280;26936;50.524;8.684;2023-02-28T07:37:49;100567.09;;;1.42;74.49
41202;BME280;26936;50.524;8.684;2023-02-28T07:40:15;100575.63;;;1.33;75.81
41202;BME280;26936;50.524;8.684;2023-02-28T07:42:43;100580.34;;;1.48;75.14
41202;BME280;26936;50.524;8.684;2023-02-28T07:45:10;100570.25;;;1.59;74.16
41202;BME280;26936;50.524;8.684;2023-02-28T07:47:37;100566.81;;;1.66;72.79
41202;BME280;26936;50.524;8.684;2023-02-28T07:50:03;100572.75;;;1.64;71.41
41202;BME280;26936;50.524;8.684;2023-02-28T07:52:28;100568.88;;;1.69;70.50
41202;BME280;26936;50.524;8.684;2023-02-28T07:54:54;100582.53;;;1.77;69.11
41202;BME280;26936;50.524;8.684;2023-02-28T07:57:19;100581.28;;;1.75;69.69
41202;BME280;26936;50.524;8.684;2023-02-28T07:59:44;100580.53;;;1.59;69.15
41202;BME280;26936;50.524;8.684;2023-02-28T08:02:13;100585.97;;;1.71;68.77
41202;BME280;26936;50.524;8.684;2023-02-28T08:04:39;100578.31;;;1.64;68.05
41202;BME280;26936;50.524;8.684;2023-02-28T08:07:04;100581.38;;;1.78;68.08
41202;BME280;26936;50.524;8.684;2023-02-28T08:09:29;100587.84;;;1.67;66.40
41202;BME280;26936;50.524;8.684;2023-02-28T08:11:55;100582.97;;;1.60;66.25
41202;BME280;26936;50.524;8.684;2023-02-28T08:14:20;100580.94;;;1.76;67.44
41202;BME280;26936;50.524;8.684;2023-02-28T08:16:45;100584.00;;;1.71;65.37
41202;BME280;26936;50.524;8.684;2023-02-28T08:19:11;100590.06;;;1.77;64.48
41202;BME280;26936;50.524;8.684;2023-02-28T08:21:36;100592.09;;;1.80;62.96
41202;BME280;26936;50.524;8.684;2023-02-28T08:24:01;100584.81;;;1.91;63.50
41202;BME280;26936;50.524;8.684;2023-02-28T08:26:27;100579.00;;;1.99;63.84
41202;BME280;26936;50.524;8.684;2023-02-28T08:28:52;100585.31;;;2.15;62.39
41202;BME280;26936;50.524;8.684;2023-02-28T08:31:18;100586.03;;;1.93;62.32
41202;BME280;26936;50.524;8.684;2023-02-28T08:33:44;100580.63;;;2.19;61.83
41202;BME280;26936;50.524;8.684;2023-02-28T08:36:14;100564.06;;;2.26;61.04
41202;BME280;26936;50.524;8.684;2023-02-28T08:38:40;100575.38;;;2.37;59.95
41202;BME280;26936;50.524;8.684;2023-02-28T08:41:07;100577.91;;;2.23;59.64
41202;BME280;26936;50.524;8.684;2023-02-28T08:43:35;100577.69;;;2.31;58.71
41202;BME280;26936;50.524;8.684;2023-02-28T08:46:00;100584.97;;;2.39;58.93
41202;BME280;26936;50.524;8.684;2023-02-28T08:48:28;100571.50;;;2.41;59.45
41202;BME280;26936;50.524;8.684;2023-02-28T08:51:02;100584.84;;;2.55;57.86
41202;BME280;26936;50.524;8.684;2023-02-28T08:53:27;100578.97;;;2.60;57.43
41202;BME280;26936;50.524;8.684;2023-02-28T08:58:22;100579.78;;;2.83;56.77
41202;BME280;26936;50.524;8.684;2023-02-28T09:00:47;100584.56;;;3.09;55.89
41202;BME280;26936;50.524;8.684;2023-02-28T09:03:12;100583.56;;;3.20;54.12
41202;BME280;26936;50.524;8.684;2023-02-28T09:05:38;100583.59;;;3.50;53.95
41202;BME280;26936;50.524;8.684;2023-02-28T09:08:03;100588.66;;;3.70;52.98
41202;BME280;26936;50.524;8.684;2023-02-28T09:10:28;100591.81;;;3.98;51.57
41202;BME280;26936;50.524;8.684;2023-02-28T09:12:54;100592.44;;;4.18;50.56
41202;BME280;26936;50.524;8.684;2023-02-28T09:15:19;100579.31;;;4.59;48.60
41202;BME280;26936;50.524;8.684;2023-02-28T09:17:44;100589.25;;;4.96;47.03
41202;BME280;26936;50.524;8.684;2023-02-28T09:20:10;100588.25;;;5.22;47.30
41202;BME280;26936;50.524;8.684;2023-02-28T09:22:35;100584.97;;;5.71;45.18
41202;BME280;26936;50.524;8.684;2023-02-28T09:25:01;100580.03;;;6.22;42.79
41202;BME280;26936;50.524;8.684;2023-02-28T09:27:26;100606.19;;;5.79;43.61
41202;BME280;26936;50.524;8.684;2023-02-28T09:29:51;100580.81;;;6.12;43.66
41202;BME280;26936;50.524;8.684;2023-02-28T09:32:16;100586.38;;;6.05;42.74
41202;BME280;26936;50.524;8.684;2023-02-28T09:34:43;100578.84;;;6.26;42.66
41202;BME280;26936;50.524;8.684;2023-02-28T09:37:08;100585.63;;;6.22;42.40
41202;BME280;26936;50.524;8.684;2023-02-28T09:39:34;100582.94;;;6.71;42.59
41202;BME280;26936;50.524;8.684;2023-02-28T09:41:59;100584.97;;;7.09;41.30
41202;BME280;26936;50.524;8.684;2023-02-28T09:44:31;100568.16;;;7.13;41.63
41202;BME280;26936;50.524;8.684;2023-02-28T09:47:10;100568.97;;;7.10;41.65
41202;BME280;26936;50.524;8.684;2023-02-28T09:49:42;100565.34;;;7.20;40.15
41202;BME280;26936;50.524;8.684;2023-02-28T09:52:29;100558.81;;;7.82;40.62
41202;BME280;26936;50.524;8.684;2023-02-28T09:55:01;100565.50;;;8.13;39.54
41202;BME280;26936;50.524;8.684;2023-02-28T09:57:42;100577.31;;;7.48;39.36
41202;BME280;26936;50.524;8.684;2023-02-28T10:00:17;100566.84;;;7.73;39.17
41202;BME280;26936;50.524;8.684;2023-02-28T10:05:27;100570.69;;;8.14;38.90
41202;BME280;26936;50.524;8.684;2023-02-28T10:08:00;100585.69;;;7.69;39.67
41202;BME280;26936;50.524;8.684;2023-02-28T10:10:39;100572.13;;;6.52;41.27
41202;BME280;26936;50.524;8.684;2023-02-28T10:16:08;100577.69;;;7.68;39.81
41202;BME280;26936;50.524;8.684;2023-02-28T10:18:47;100565.34;;;7.37;40.46
41202;BME280;26936;50.524;8.684;2023-02-28T10:21:47;100579.63;;;6.16;42.20
41202;BME280;26936;50.524;8.684;2023-02-28T10:24:39;100577.44;;;5.17;42.95
41202;BME280;26936;50.524;8.684;2023-02-28T10:27:15;100572.41;;;5.36;42.59
41202;BME280;26936;50.524;8.684;2023-02-28T10:29:43;100579.66;;;5.51;42.28
41202;BME280;26936;50.524;8.684;2023-02-28T10:32:11;100577.91;;;5.87;41.51
41202;BME280;26936;50.524;8.684;2023-02-28T10:34:39;100581.50;;;5.26;42.46
41202;BME280;26936;50.524;8.684;2023-02-28T10:37:05;100567.22;;;6.17;41.85
41202;BME280;26936;50.524;8.684;2023-02-28T10:39:35;100564.78;;;6.09;41.10
41202;BME280;26936;50.524;8.684;2023-02-28T10:42:01;100568.72;;;5.90;41.58
41202;BME280;26936;50.524;8.684;2023-02-28T10:44:26;100568.88;;;6.29;41.50
41202;BME280;26936;50.524;8.684;2023-02-28T10:46:52;100569.75;;;6.85;41.16
41202;BME280;26936;50.524;8.684;2023-02-28T10:49:24;100571.34;;;7.18;40.45
41202;BME280;26936;50.524;8.684;2023-02-28T10:52:00;100562.00;;;7.88;39.50
41202;BME280;26936;50.524;8.684;2023-02-28T10:54:35;100562.69;;;8.23;39.09
41202;BME280;26936;50.524;8.684;2023-02-28T10:57:23;100563.91;;;8.12;39.00
41202;BME280;26936;50.524;8.684;2023-02-28T11:00:12;100569.53;;;8.01;38.16
41202;BME280;26936;50.524;8.684;2023-02-28T11:02:38;100558.41;;;7.73;37.97
41202;BME280;26936;50.524;8.684;2023-02-28T11:05:30;100557.25;;;7.64;38.16
41202;BME280;26936;50.524;8.684;2023-02-28T11:08:02;100559.34;;;7.18;40.13
41202;BME280;26936;50.524;8.684;2023-02-28T11:10:31;100567.34;;;7.26;39.41
41202;BME280;26936;50.524;8.684;2023-02-28T11:13:00;100568.78;;;6.04;41.99
41202;BME280;26936;50.524;8.684;2023-02-28T11:15:31;100559.22;;;6.05;42.83
41202;BME280;26936;50.524;8.684;2023-02-28T11:18:01;100567.09;;;5.21;44.14
41202;BME280;26936;50.524;8.684;2023-02-28T11:20:30;100560.91;;;4.94;45.29
41202;BME280;26936;50.524;8.684;2023-02-28T11:22:57;100563.47;;;4.66;46.35
41202;BME280;26936;50.524;8.684;2023-02-28T11:25:35;100568.59;;;4.61;46.80
41202;BME280;26936;50.524;8.684;2023-02-28T11:28:08;100562.53;;;4.95;45.47
41202;BME280;26936;50.524;8.684;2023-02-28T11:33:55;100564.28;;;5.14;45.76
41202;BME280;26936;50.524;8.684;2023-02-28T11:36:27;100563.88;;;4.68;47.10
41202;BME280;26936;50.524;8.684;2023-02-28T11:38:54;100560.81;;;4.40;47.68
41202;BME280;26936;50.524;8.684;2023-02-28T11:44:22;100562.31;;;4.71;47.22
41202;BME280;26936;50.524;8.684;2023-02-28T11:46:58;100558.56;;;4.53;48.11
41202;BME280;26936;50.524;8.684;2023-02-28T11:52:41;100570.19;;;4.22;49.68
41202;BME280;26936;50.524;8.684;2023-02-28T11:55:25;100556.44;;;4.83;48.86
41202;BME280;26936;50.524;8.684;2023-02-28T12:03:26;100557.63;;;4.05;49.85
41202;BME280;26936;50.524;8.684;2023-02-28T12:08:54;100557.44;;;4.21;50.44
41202;BME280;26936;50.524;8.684;2023-02-28T12:25:29;100548.81;;;4.80;49.49
41202;BME280;26936;50.524;8.684;2023-02-28T12:27:59;100548.34;;;4.71;49.40
41202;BME280;26936;50.524;8.684;2023-02-28T12:30:35;100541.97;;;5.21;48.84
41202;BME280;26936;50.524;8.684;2023-02-28T12:33:08;100548.31;;;5.18;47.29
41202;BME280;26936;50.524;8.684;2023-02-28T12:35:45;100543.53;;;5.15;48.71
41202;BME280;26936;50.524;8.684;2023-02-28T12:38:17;100552.19;;;5.03;48.36
41202;BME280;26936;50.524;8.684;2023-02-28T12:41:05;100537.66;;;4.76;48.44
41202;BME280;26936;50.524;8.684;2023-02-28T12:43:53;100540.94;;;4.89;48.26
41202;BME280;26936;50.524;8.684;2023-02-28T12:46:32;100549.91;;;5.19;48.41
41202;BME280;26936;50.524;8.684;2023-02-28T12:49:04;100540.88;;;5.39;48.35
41202;BME280;26936;50.524;8.684;2023-02-28T12:51:32;100535.53;;;5.13;48.63
41202;BME280;26936;50.524;8.684;2023-02-28T12:59:29;100528.84;;;5.25;49.28
41202;BME280;26936;50.524;8.684;2023-02-28T13:02:22;100540.38;;;5.23;48.36
41202;BME280;26936;50.524;8.684;2023-02-28T13:10:46;100523.09;;;5.07;50.08
41202;BME280;26936;50.524;8.684;2023-02-28T13:13:20;100530.06;;;4.77;49.38
41202;BME280;26936;50.524;8.684;2023-02-28T13:16:08;100527.41;;;4.91;49.51
41202;BME280;26936;50.524;8.684;2023-02-28T13:18:41;100528.25;;;4.98;49.74
41202;BME280;26936;50.524;8.684;2023-02-28T13:21:10;100523.16;;;4.64;49.39
41202;BME280;26936;50.524;8.684;2023-02-28T13:31:27;100515.53;;;4.57;50.80
41202;BME280;26936;50.524;8.684;2023-02-28T13:36:31;100514.19;;;4.84;49.86
41202;BME280;26936;50.524;8.684;2023-02-28T13:39:02;100516.53;;;4.79;50.34
41202;BME280;26936;50.524;8.684;2023-02-28T13:46:25;100510.28;;;4.49;50.35
41202;BME280;26936;50.524;8.684;2023-02-28T13:48:51;100505.47;;;4.46;50.27
41202;BME280;26936;50.524;8.684;2023-02-28T13:51:37;100503.53;;;4.50;50.96
41202;BME280;26936;50.524;8.684;2023-02-28T13:54:27;100504.56;;;4.35;51.49
41202;BME280;26936;50.524;8.684;2023-02-28T13:57:20;100503.81;;;4.38;51.68
41202;BME280;26936;50.524;8.684;2023-02-28T14:03:18;100503.88;;;4.45;51.05
41202;BME280;26936;50.524;8.684;2023-02-28T14:06:10;100503.84;;;4.41;52.46
41202;BME280;26936;50.524;8.684;2023-02-28T14:08:49;100492.47;;;4.64;51.48
41202;BME280;26936;50.524;8.684;2023-02-28T14:11:46;100483.00;;;4.75;51.37
41202;BME280;26936;50.524;8.684;2023-02-28T14:16:59;100487.13;;;4.92;51.09
41202;BME280;26936;50.524;8.684;2023-02-28T14:19:26;100481.84;;;4.76;51.22
41202;BME280;26936;50.524;8.684;2023-02-28T14:37:56;100466.44;;;5.00;50.32
41202;BME280;26936;50.524;8.684;2023-02-28T14:40:31;100462.06;;;5.02;50.79
41202;BME280;26936;50.524;8.684;2023-02-28T14:43:00;100459.41;;;5.27;49.65
41202;BME280;26936;50.524;8.684;2023-02-28T14:45:28;100462.59;;;5.22;50.30
41202;BME280;26936;50.524;8.684;2023-02-28T14:47:54;100457.41;;;5.27;50.38
41202;BME280;26936;50.524;8.684;2023-02-28T14:50:22;100456.16;;;5.18;50.36
41202;BME280;26936;50.524;8.684;2023-02-28T14:52:51;100445.84;;;5.29;50.63
41202;BME280;26936;50.524;8.684;2023-02-28T14:55:28;100451.72;;;5.06;50.11
41202;BME280;26936;50.524;8.684;2023-02-28T14:57:56;100457.38;;;5.17;51.26
41202;BME280;26936;50.524;8.684;2023-02-28T15:00:28;100461.28;;;5.05;50.85
41202;BME280;26936;50.524;8.684;2023-02-28T15:02:55;100459.63;;;5.01;51.04
41202;BME280;26936;50.524;8.684;2023-02-28T15:05:30;100450.06;;;4.98;51.72
41202;BME280;26936;50.524;8.684;2023-02-28T15:10:28;100452.63;;;4.67;51.42
41202;BME280;26936;50.524;8.684;2023-02-28T15:13:14;100451.13;;;4.80;51.46
41202;BME280;26936;50.524;8.684;2023-02-28T15:15:59;100450.28;;;4.72;51.48